Flight Track Log - Related Links

Times and Time Zones

All times are in EST time to prevent confusion due to time zone crossing. See the EJA922 flight status page for this flight to view local times or setup timezone preferences in your user account.

Time Position Orientation Groundspeed Altitude Reporting Facility
EST Latitude Longitude Course Direction KTS MPH feet Rate Location/Type
Thu 02:01:34 PM 36.0750 -115.1339 88° East 178 205 3,500  Level Los Angeles Center
Thu 02:02:35 PM 36.0772 -115.0642 88° East 197 227 5,900 2,147 Climbing Los Angeles Center
Thu 02:03:09 PM 36.0767 -115.0219 91° East 202 232 6,900 2,066 Climbing Los Angeles Center
Thu 02:03:36 PM 36.0769 -114.9842 89° East 219 252 8,000 2,226 Climbing Los Angeles Center
Thu 02:04:11 PM 36.0533 -114.9461 127° Southeast 269 310 9,200 2,459 Climbing Los Angeles Center
Thu 02:04:37 PM 36.0158 -114.9514 186° South 305 351 10,500 2,710 Climbing Los Angeles Center
Thu 02:05:13 PM 35.9736 -114.9958 220° Southwest 321 369 12,000 2,557 Climbing Los Angeles Center
Thu 02:05:38 PM 35.9436 -115.0258 219° Southwest 345 397 13,100 2,857 Climbing Los Angeles Center
Thu 02:06:16 PM 35.8969 -115.0736 220° Southwest 353 406 15,000 2,848 Climbing Los Angeles Center
Thu 02:07:17 PM 35.8158 -115.1547 219° Southwest 373 429 17,800 2,488 Climbing Los Angeles Center
Thu 02:08:19 PM 35.7261 -115.2456 219° Southwest 388 447 20,100 2,032 Climbing Los Angeles Center
Thu 02:09:21 PM 35.6394 -115.3397 221° Southwest 401 461 22,000 919 Climbing Los Angeles Center
Thu 02:10:23 PM 35.5586 -115.4550 229° Southwest 426 490 22,000  Level Los Angeles Center
Thu 02:11:26 PM 35.4731 -115.5717 228° Southwest 449 517 22,000  Level Los Angeles Center
Thu 02:12:28 PM 35.3875 -115.6864 228° Southwest 454 522 22,000  Level Los Angeles Center
Thu 02:13:30 PM 35.3025 -115.7950 226° Southwest 449 517 22,000  Level Los Angeles Center
Thu 02:14:32 PM 35.2186 -115.9103 228° Southwest 444 511 22,000  Level Los Angeles Center
Thu 02:15:34 PM 35.1183 -116.0433 227° Southwest 448 516 22,000  Level Los Angeles Center
Thu 02:16:36 PM 35.0436 -116.1364 226° Southwest 448 516 22,000  Level Los Angeles Center
Thu 02:17:38 PM 34.9494 -116.2644 228° Southwest 438 504 22,000  Level Los Angeles Center
Thu 02:18:40 PM 34.8650 -116.3750 227° Southwest 445 512 22,000  Level Los Angeles Center
Thu 02:19:43 PM 34.7972 -116.4986 236° Southwest 446 513 22,000  Level Los Angeles Center
Thu 02:20:45 PM 34.7764 -116.6664 261° West 423 487 22,000  Level Los Angeles Center
Thu 02:21:47 PM 34.7636 -116.8089 264° West 424 488 22,000 -387 Level Los Angeles Center
Thu 02:22:49 PM 34.7483 -116.9614 263° West 426 490 21,200 -1,258 Descending Los Angeles Center
Thu 02:23:51 PM 34.7344 -117.1025 263° West 422 486 19,400 -1,645 Descending Los Angeles Center
Thu 02:24:53 PM 34.7208 -117.2297 263° West 414 476 17,800 -1,500 Descending Los Angeles Center
Thu 02:25:55 PM 34.7069 -117.3619 263° West 402 463 16,300 -1,680 Descending Los Angeles Center
Thu 02:26:58 PM 34.6900 -117.5211 263° West 398 458 14,300 -1,728 Descending Los Angeles Center
Thu 02:28:00 PM 34.6764 -117.6522 263° West 394 453 12,700 -1,113 Descending Los Angeles Center
Thu 02:29:02 PM 34.6622 -117.7850 263° West 398 458 12,000 -339 Descending Los Angeles Center
Thu 02:30:04 PM 34.6461 -117.9272 262° West 398 458 12,000 -384 Level Los Angeles Center
Thu 02:31:07 PM 34.6328 -118.0483 262° West 372 428 11,200 -1,113 Descending Los Angeles Center
Thu 02:32:08 PM 34.5864 -118.1311 236° Southwest 307 353 9,700 -1,268 Descending Los Angeles Center
Thu 02:33:10 PM 34.5394 -118.2122 235° Southwest 295 339 8,600 -816 Descending Los Angeles Center
Thu 02:34:13 PM 34.4803 -118.3053 232° Southwest 292 336 8,000 -240 Descending Los Angeles Center
Thu 02:35:15 PM 34.4292 -118.3811 231° Southwest 293 337 8,100  Climbing Los Angeles Center
Thu 02:36:17 PM 34.3533 -118.3706 173° South 286 329 8,000 -194 Descending Los Angeles Center
Thu 02:37:19 PM 34.2803 -118.3322 157° South 285 328 7,700 -871 Descending Los Angeles Center
Thu 02:38:21 PM 34.2108 -118.2978 158° South 271 312 6,200 -1,258 Descending Los Angeles Center
Thu 02:39:23 PM 34.1456 -118.2872 172° South 243 280 5,100 -1,355 Descending Los Angeles Center
Thu 02:40:25 PM 34.0953 -118.3486 225° Southwest 213 245 3,400 -1,548 Descending Los Angeles Center
Thu 02:41:27 PM 34.0572 -118.3975 227° Southwest 201 231 1,900 -1,392 Descending Los Angeles Center
Thu 02:42:30 PM 34.0272 -118.4367 227° Southwest 155 178 500 -816 Descending Los Angeles Center
Thu 02:43:32 PM 33.9994 -118.4739 228° Southwest 144 166 200 -290 Descending Los Angeles Center
Thu 02:45:00 PM 34.0000 -118.4500 40° Northeast  Level FlightAware Approximate

Login

Don't have an account? Register now (free) for customized features, flight alerts, and more!